Terminal Aerodrome Forecast
Issued by NWS Cleveland, OH

Home | Current Version | Previous Version | Text Only | Print | Product List | Glossary Off
Versions: 1 2 3 4 5 6 7 8 9 10 11 12 13 14 15 16 17 18 19 20 21 22 23 24 25 26

000
FTUS41 KCLE 291741
TAFMFD
TAF
KMFD 291741Z 2918/3018 03008KT P6SM SCT008 OVC015
      TEMPO 2918/2922 2SM -TSRA OVC008CB
     FM292200 05008KT 5SM -SHRA BR OVC008
     FM300400 08010KT 5SM BR OVC004
     FM301500 10010KT P6SM BKN012 BKN025=

USA.gov is the U.S. government's official web portal to all federal, state and local government web resources and services.